createdAt,value
2017-10-04T00:00:39.112Z,1016.31
2017-10-04T00:01:39.088Z,1016.32
2017-10-04T00:02:39.066Z,1016.31
2017-10-04T00:03:39.045Z,1016.3
2017-10-04T00:04:39.023Z,1016.32
2017-10-04T00:05:39.000Z,1016.34
2017-10-04T00:06:38.979Z,1016.33
2017-10-04T00:07:38.955Z,1016.35
2017-10-04T00:08:38.931Z,1016.36
2017-10-04T00:09:38.911Z,1016.4
2017-10-04T00:10:38.885Z,1016.36
2017-10-04T00:11:38.865Z,1016.34
2017-10-04T00:12:38.840Z,1016.3
2017-10-04T00:13:38.822Z,1016.29
2017-10-04T00:14:38.796Z,1016.26
2017-10-04T00:15:38.774Z,1016.29
2017-10-04T00:16:38.749Z,1016.21
2017-10-04T00:17:38.732Z,1016.23
2017-10-04T00:18:38.705Z,1016.25
2017-10-04T00:19:38.687Z,1016.31
2017-10-04T00:20:38.660Z,1016.27
2017-10-04T00:21:38.636Z,1016.22
2017-10-04T00:22:38.616Z,1016.22
2017-10-04T00:23:38.592Z,1016.18
2017-10-04T00:24:38.572Z,1016.21
2017-10-04T00:25:38.549Z,1016.2
2017-10-04T00:26:38.523Z,1016.27
2017-10-04T00:27:38.506Z,1016.18
2017-10-04T00:28:38.479Z,1016.15
2017-10-04T00:29:38.455Z,1016.19
2017-10-04T00:30:38.435Z,1016.19
2017-10-04T00:31:38.414Z,1016.23
2017-10-04T00:32:38.386Z,1016.2
2017-10-04T00:33:38.385Z,1016.16
2017-10-04T00:34:38.344Z,1016.2
2017-10-04T00:35:38.328Z,1016.13
2017-10-04T00:36:38.300Z,1016.16
2017-10-04T00:37:38.272Z,1016.2
2017-10-04T00:38:38.255Z,1016.14
2017-10-04T00:39:38.227Z,1016.15
2017-10-04T00:40:38.206Z,1016.16
2017-10-04T00:41:38.189Z,1016.11
2017-10-04T00:42:38.162Z,1016.2
2017-10-04T00:43:38.142Z,1016.21
2017-10-04T00:44:38.118Z,1016.26
2017-10-04T00:45:38.093Z,1016.22
2017-10-04T00:46:38.071Z,1016.25
2017-10-04T00:47:38.049Z,1016.16
2017-10-04T00:48:38.026Z,1016.12
2017-10-04T00:49:38.003Z,1016.15
2017-10-04T00:50:37.978Z,1016.14
2017-10-04T00:51:37.959Z,1016.13
2017-10-04T00:52:37.935Z,1016.12
2017-10-04T00:53:37.915Z,1016.12
2017-10-04T00:54:37.893Z,1016.07
2017-10-04T00:55:37.870Z,1016.06
2017-10-04T00:56:37.844Z,1015.99
2017-10-04T00:57:37.823Z,1016.02
2017-10-04T00:58:37.798Z,1015.95
2017-10-04T00:59:37.776Z,1015.99
2017-10-04T01:00:37.752Z,1016.01
2017-10-04T01:01:37.733Z,1016.02
2017-10-04T01:02:37.708Z,1016.08
2017-10-04T01:03:37.684Z,1016.06
2017-10-04T01:04:37.663Z,1016.06
2017-10-04T01:05:37.640Z,1016.02
2017-10-04T01:06:37.618Z,1016.06
2017-10-04T01:07:37.596Z,1016
2017-10-04T01:08:37.578Z,1015.97
2017-10-04T01:09:37.549Z,1015.95
2017-10-04T01:10:37.527Z,1015.94
2017-10-04T01:11:37.514Z,1015.88
2017-10-04T01:12:37.481Z,1015.85
2017-10-04T01:13:37.458Z,1015.84
2017-10-04T01:14:37.436Z,1015.87
2017-10-04T01:15:37.415Z,1015.83
2017-10-04T01:16:37.391Z,1015.82
2017-10-04T01:17:37.367Z,1015.83
2017-10-04T01:18:37.349Z,1015.84
2017-10-04T01:19:37.324Z,1015.81
2017-10-04T01:20:37.300Z,1015.83
2017-10-04T01:21:37.279Z,1015.81
2017-10-04T01:22:37.256Z,1015.84
2017-10-04T01:23:37.234Z,1015.78
2017-10-04T01:24:37.213Z,1015.79
2017-10-04T01:25:37.188Z,1015.8
2017-10-04T01:26:37.169Z,1015.78
2017-10-04T01:27:37.143Z,1015.75
2017-10-04T01:28:37.120Z,1015.72
2017-10-04T01:29:37.100Z,1015.8
2017-10-04T01:30:37.075Z,1015.8
2017-10-04T01:31:37.050Z,1015.82
2017-10-04T01:32:37.031Z,1015.82
2017-10-04T01:33:37.004Z,1015.77
2017-10-04T01:34:36.990Z,1015.84
2017-10-04T01:35:36.959Z,1015.83
2017-10-04T01:36:36.939Z,1015.86
2017-10-04T01:37:36.964Z,1015.83
2017-10-04T01:38:36.894Z,1015.86
2017-10-04T01:39:36.872Z,1015.93
2017-10-04T01:40:36.847Z,1015.92
2017-10-04T01:41:36.824Z,1015.91
2017-10-04T01:42:36.853Z,1015.93
2017-10-04T01:43:36.784Z,1015.96
2017-10-04T01:44:36.762Z,1015.98
2017-10-04T01:45:36.735Z,1015.93
2017-10-04T01:46:36.718Z,1015.89
2017-10-04T01:47:36.689Z,1015.87
2017-10-04T01:48:36.671Z,1015.85
2017-10-04T01:49:36.644Z,1015.86
2017-10-04T01:50:36.623Z,1015.89
2017-10-04T01:51:36.597Z,1015.89
2017-10-04T01:52:36.574Z,1015.91
2017-10-04T01:53:36.557Z,1015.87
2017-10-04T01:54:36.530Z,1015.89
2017-10-04T01:55:36.507Z,1015.9
2017-10-04T01:56:36.484Z,1015.91
2017-10-04T01:57:36.461Z,1015.95
2017-10-04T01:58:36.439Z,1015.96
2017-10-04T01:59:36.419Z,1015.87
2017-10-04T02:00:36.395Z,1015.85
2017-10-04T02:01:36.372Z,1015.85
2017-10-04T02:02:36.349Z,1015.82
2017-10-04T02:03:36.329Z,1015.85
2017-10-04T02:04:36.304Z,1015.82
2017-10-04T02:05:36.281Z,1015.8
2017-10-04T02:06:36.263Z,1015.79
2017-10-04T02:07:36.234Z,1015.79
2017-10-04T02:08:36.214Z,1015.82
2017-10-04T02:09:36.190Z,1015.77
2017-10-04T02:10:36.169Z,1015.75
2017-10-04T02:11:36.145Z,1015.77
2017-10-04T02:12:36.123Z,1015.75
2017-10-04T02:13:36.105Z,1015.77
2017-10-04T02:14:36.076Z,1015.71
2017-10-04T02:15:36.059Z,1015.69
2017-10-04T02:16:36.032Z,1015.66
2017-10-04T02:17:36.010Z,1015.63
2017-10-04T02:18:35.985Z,1015.67
2017-10-04T02:19:35.965Z,1015.64
2017-10-04T02:20:35.942Z,1015.63
2017-10-04T02:21:35.919Z,1015.63
2017-10-04T02:22:35.896Z,1015.61
2017-10-04T02:23:35.873Z,1015.59
2017-10-04T02:24:35.850Z,1015.62
2017-10-04T02:25:35.826Z,1015.67
2017-10-04T02:26:35.803Z,1015.74
2017-10-04T02:27:35.783Z,1015.71
2017-10-04T02:28:35.763Z,1015.66
2017-10-04T02:29:35.739Z,1015.69
2017-10-04T02:30:35.717Z,1015.68
2017-10-04T02:31:35.690Z,1015.67
2017-10-04T02:32:35.668Z,1015.65
2017-10-04T02:33:35.647Z,1015.68
2017-10-04T02:34:35.623Z,1015.69
2017-10-04T02:35:35.599Z,1015.73
2017-10-04T02:36:35.577Z,1015.67
2017-10-04T02:37:35.556Z,1015.64
2017-10-04T02:38:35.535Z,1015.63
2017-10-04T02:39:35.508Z,1015.64
2017-10-04T02:40:35.486Z,1015.69
2017-10-04T02:41:35.463Z,1015.69
2017-10-04T02:42:35.447Z,1015.62
2017-10-04T02:43:35.420Z,1015.64
2017-10-04T02:44:35.394Z,1015.63
2017-10-04T02:45:35.374Z,1015.6
2017-10-04T02:46:35.351Z,1015.57
2017-10-04T02:47:35.326Z,1015.56
2017-10-04T02:48:35.306Z,1015.51
2017-10-04T02:49:35.284Z,1015.51
2017-10-04T02:50:35.260Z,1015.46
2017-10-04T02:51:35.239Z,1015.41
2017-10-04T02:52:35.215Z,1015.36
2017-10-04T02:53:35.192Z,1015.4
2017-10-04T02:54:35.172Z,1015.39
2017-10-04T02:55:35.147Z,1015.42
2017-10-04T02:56:35.123Z,1015.39
2017-10-04T02:57:35.101Z,1015.38
2017-10-04T02:58:35.077Z,1015.4
2017-10-04T02:59:35.056Z,1015.39
2017-10-04T03:00:35.034Z,1015.39
2017-10-04T03:01:35.011Z,1015.36
2017-10-04T03:02:34.991Z,1015.39
2017-10-04T03:03:34.966Z,1015.31
2017-10-04T03:04:34.943Z,1015.27
2017-10-04T03:05:34.923Z,1015.25
2017-10-04T03:06:34.901Z,1015.24
2017-10-04T03:07:34.875Z,1015.23
2017-10-04T03:08:34.854Z,1015.2
2017-10-04T03:09:34.829Z,1015.22
2017-10-04T03:10:34.808Z,1015.23
2017-10-04T03:11:34.784Z,1015.25
2017-10-04T03:12:34.763Z,1015.26
2017-10-04T03:13:34.741Z,1015.28
2017-10-04T03:14:34.717Z,1015.34
2017-10-04T03:15:34.693Z,1015.38
2017-10-04T03:16:34.670Z,1015.36
2017-10-04T03:17:34.653Z,1015.39
2017-10-04T03:18:34.626Z,1015.4
2017-10-04T03:19:34.603Z,1015.42
2017-10-04T03:20:34.579Z,1015.42
2017-10-04T03:21:34.557Z,1015.4
2017-10-04T03:22:34.536Z,1015.41
2017-10-04T03:23:34.514Z,1015.45
2017-10-04T03:24:34.489Z,1015.44
2017-10-04T03:25:34.470Z,1015.47
2017-10-04T03:26:34.449Z,1015.48
2017-10-04T03:27:34.421Z,1015.47
2017-10-04T03:28:34.398Z,1015.45
2017-10-04T03:29:34.376Z,1015.47
2017-10-04T03:30:34.356Z,1015.46
2017-10-04T03:31:34.336Z,1015.47
2017-10-04T03:32:34.306Z,1015.5
2017-10-04T03:33:34.283Z,1015.45
2017-10-04T03:34:34.262Z,1015.45
2017-10-04T03:35:34.243Z,1015.4
2017-10-04T03:36:34.216Z,1015.34
2017-10-04T03:37:34.196Z,1015.26
2017-10-04T03:38:34.172Z,1015.26
2017-10-04T03:39:34.149Z,1015.25
2017-10-04T03:40:34.125Z,1015.23
2017-10-04T03:41:34.121Z,1015.22
2017-10-04T03:42:34.081Z,1015.22
2017-10-04T03:43:34.058Z,1015.2
2017-10-04T03:44:34.034Z,1015.17
2017-10-04T03:45:34.064Z,1015.18
2017-10-04T03:46:33.994Z,1015.18
2017-10-04T03:47:33.967Z,1015.19
2017-10-04T03:48:33.948Z,1015.16
2017-10-04T03:49:33.920Z,1015.17
2017-10-04T03:50:33.898Z,1015.13
2017-10-04T03:51:33.878Z,1015.14
2017-10-04T03:52:33.853Z,1015.13
2017-10-04T03:53:33.828Z,1015.07
2017-10-04T03:54:33.807Z,1015.11
2017-10-04T03:55:33.785Z,1015.2
2017-10-04T03:56:33.768Z,1015.15
2017-10-04T03:57:33.740Z,1015.17
2017-10-04T03:58:33.717Z,1015.15
2017-10-04T03:59:33.695Z,1015.15
2017-10-04T04:00:33.671Z,1015.12
2017-10-04T04:01:33.650Z,1015.06
2017-10-04T04:02:33.625Z,1015.02
2017-10-04T04:03:33.603Z,1014.99
2017-10-04T04:04:33.594Z,1015.05
2017-10-04T04:05:33.557Z,1015.05
2017-10-04T04:06:33.539Z,1015.04
2017-10-04T04:07:33.512Z,1015.06
2017-10-04T04:08:33.488Z,1015.06
2017-10-04T04:09:33.466Z,1015.01
2017-10-04T04:10:33.445Z,1014.95
2017-10-04T04:11:33.422Z,1014.93
2017-10-04T04:12:33.398Z,1014.89
2017-10-04T04:13:33.379Z,1014.94
2017-10-04T04:14:33.353Z,1014.93
2017-10-04T04:15:33.334Z,1014.85
2017-10-04T04:16:33.307Z,1014.85
2017-10-04T04:17:33.310Z,1014.81
2017-10-04T04:18:33.263Z,1014.83
2017-10-04T04:19:33.241Z,1014.89
2017-10-04T04:20:33.216Z,1014.87
2017-10-04T04:21:33.193Z,1014.87
2017-10-04T04:22:33.170Z,1014.86
2017-10-04T04:23:33.149Z,1014.83
2017-10-04T04:24:33.126Z,1014.88
2017-10-04T04:25:33.102Z,1014.87
2017-10-04T04:26:33.079Z,1014.91
2017-10-04T04:27:33.055Z,1014.87
2017-10-04T04:28:33.035Z,1014.93
2017-10-04T04:29:33.011Z,1014.96
2017-10-04T04:30:32.992Z,1014.88
2017-10-04T04:31:32.967Z,1014.87
2017-10-04T04:32:32.955Z,1014.86
2017-10-04T04:33:32.918Z,1014.79
2017-10-04T04:34:32.897Z,1014.84
2017-10-04T04:35:32.876Z,1014.86
2017-10-04T04:36:32.853Z,1014.83
2017-10-04T04:37:32.830Z,1014.9
2017-10-04T04:38:32.808Z,1014.88
2017-10-04T04:39:32.789Z,1014.92
2017-10-04T04:40:32.760Z,1014.9
2017-10-04T04:41:32.737Z,1014.88
2017-10-04T04:42:32.717Z,1014.88
2017-10-04T04:43:32.692Z,1014.83
2017-10-04T04:44:32.669Z,1014.82
2017-10-04T04:45:32.697Z,1014.85
2017-10-04T04:46:32.624Z,1014.76
2017-10-04T04:47:32.602Z,1014.81
2017-10-04T04:48:32.577Z,1014.77
2017-10-04T04:49:32.555Z,1014.77
2017-10-04T04:50:32.532Z,1014.74
2017-10-04T04:51:32.511Z,1014.74
2017-10-04T04:52:32.490Z,1014.79
2017-10-04T04:53:32.464Z,1014.77
2017-10-04T04:54:32.446Z,1014.79
2017-10-04T04:55:32.422Z,1014.76
2017-10-04T04:56:32.402Z,1014.78
2017-10-04T04:57:32.373Z,1014.82
2017-10-04T04:58:32.350Z,1014.82
2017-10-04T04:59:32.329Z,1014.89
2017-10-04T05:00:32.307Z,1014.91
2017-10-04T05:01:32.284Z,1014.79
2017-10-04T05:02:32.258Z,1014.79
2017-10-04T05:03:32.243Z,1014.77
2017-10-04T05:04:32.215Z,1014.8
2017-10-04T05:05:32.190Z,1014.81
2017-10-04T05:06:32.268Z,1014.83
2017-10-04T05:07:32.147Z,1014.87
2017-10-04T05:08:32.124Z,1014.88
2017-10-04T05:09:32.099Z,1014.88
2017-10-04T05:10:32.076Z,1014.82
2017-10-04T05:11:32.057Z,1014.79
2017-10-04T05:12:32.031Z,1014.79
2017-10-04T05:13:32.008Z,1014.79
2017-10-04T05:14:31.985Z,1014.77
2017-10-04T05:15:31.962Z,1014.76
2017-10-04T05:16:31.941Z,1014.81
2017-10-04T05:17:31.915Z,1014.75
2017-10-04T05:18:31.895Z,1014.75
2017-10-04T05:19:31.872Z,1014.78
2017-10-04T05:20:31.847Z,1014.73
2017-10-04T05:21:31.829Z,1014.74
2017-10-04T05:22:31.803Z,1014.75
2017-10-04T05:23:31.780Z,1014.73
2017-10-04T05:24:31.753Z,1014.77
2017-10-04T05:25:31.734Z,1014.8
2017-10-04T05:26:31.713Z,1014.82
2017-10-04T05:27:31.692Z,1014.82
2017-10-04T05:28:31.664Z,1014.78
2017-10-04T05:29:31.640Z,1014.82
2017-10-04T05:30:31.618Z,1014.73
2017-10-04T05:31:31.599Z,1014.74
2017-10-04T05:32:31.573Z,1014.72
2017-10-04T05:33:31.550Z,1014.68
2017-10-04T05:34:31.525Z,1014.67
2017-10-04T05:35:31.504Z,1014.66
2017-10-04T05:36:31.480Z,1014.59
2017-10-04T05:37:31.467Z,1014.56
2017-10-04T05:38:31.436Z,1014.56
2017-10-04T05:39:31.413Z,1014.55
2017-10-04T05:40:31.388Z,1014.58
2017-10-04T05:41:31.365Z,1014.62
2017-10-04T05:42:31.345Z,1014.58
2017-10-04T05:43:31.324Z,1014.6
2017-10-04T05:44:31.297Z,1014.61
2017-10-04T05:45:31.275Z,1014.68
2017-10-04T05:46:31.250Z,1014.69
2017-10-04T05:47:31.227Z,1014.75
2017-10-04T05:48:31.205Z,1014.75
2017-10-04T05:49:31.183Z,1014.74
2017-10-04T05:50:31.160Z,1014.72
2017-10-04T05:51:31.138Z,1014.66
2017-10-04T05:52:31.112Z,1014.67
2017-10-04T05:53:31.092Z,1014.7
2017-10-04T05:54:31.066Z,1014.72
2017-10-04T05:55:31.045Z,1014.72
2017-10-04T05:56:31.023Z,1014.75
2017-10-04T05:57:30.998Z,1014.73
2017-10-04T05:58:30.975Z,1014.74
2017-10-04T05:59:30.952Z,1014.72
2017-10-04T06:00:30.930Z,1014.66
2017-10-04T06:01:30.906Z,1014.72
2017-10-04T06:02:30.883Z,1014.75
2017-10-04T06:03:30.868Z,1014.74
2017-10-04T06:04:30.840Z,1014.71
2017-10-04T06:05:30.815Z,1014.71
2017-10-04T06:06:30.792Z,1014.73
2017-10-04T06:07:30.771Z,1014.72
2017-10-04T06:08:30.749Z,1014.65
2017-10-04T06:09:30.720Z,1014.58
2017-10-04T06:10:30.700Z,1014.48
2017-10-04T06:11:30.672Z,1014.42
2017-10-04T06:12:30.657Z,1014.42
2017-10-04T06:13:30.631Z,1014.46
2017-10-04T06:14:30.612Z,1014.45
2017-10-04T06:15:30.586Z,1014.41
2017-10-04T06:16:30.564Z,1014.36
2017-10-04T06:17:30.541Z,1014.42
2017-10-04T06:18:30.517Z,1014.49
2017-10-04T06:19:30.500Z,1014.5
2017-10-04T06:20:30.471Z,1014.54
2017-10-04T06:21:30.449Z,1014.5
2017-10-04T06:22:30.429Z,1014.62
2017-10-04T06:23:30.404Z,1014.57
2017-10-04T06:24:30.385Z,1014.59
2017-10-04T06:25:30.359Z,1014.66
2017-10-04T06:26:30.335Z,1014.66
2017-10-04T06:27:30.317Z,1014.75
2017-10-04T06:28:30.295Z,1014.72
2017-10-04T06:29:30.270Z,1014.77
2017-10-04T06:30:30.244Z,1014.76
2017-10-04T06:31:30.223Z,1014.71
2017-10-04T06:32:30.202Z,1014.61
2017-10-04T06:33:30.178Z,1014.57
2017-10-04T06:34:30.155Z,1014.51
2017-10-04T06:35:30.131Z,1014.54
2017-10-04T06:36:30.111Z,1014.52
2017-10-04T06:37:30.090Z,1014.56
2017-10-04T06:38:30.066Z,1014.56
2017-10-04T06:39:30.048Z,1014.56
2017-10-04T06:40:30.022Z,1014.51
2017-10-04T06:41:29.998Z,1014.49
2017-10-04T06:42:29.978Z,1014.48
2017-10-04T06:43:29.956Z,1014.5
2017-10-04T06:44:29.935Z,1014.51
2017-10-04T06:45:29.916Z,1014.55
2017-10-04T06:46:29.888Z,1014.5
2017-10-04T06:47:29.867Z,1014.54
2017-10-04T06:48:29.853Z,1014.5
2017-10-04T06:49:29.877Z,1014.51
2017-10-04T06:50:29.802Z,1014.45
2017-10-04T06:51:29.779Z,1014.45
2017-10-04T06:52:29.760Z,1014.46
2017-10-04T06:53:29.736Z,1014.44
2017-10-04T06:54:29.714Z,1014.41
2017-10-04T06:55:29.692Z,1014.4
2017-10-04T06:56:29.671Z,1014.39
2017-10-04T06:57:29.647Z,1014.31
2017-10-04T06:58:29.628Z,1014.35
2017-10-04T06:59:29.656Z,1014.37
2017-10-04T07:00:29.584Z,1014.38
2017-10-04T07:01:29.565Z,1014.39
2017-10-04T07:02:29.540Z,1014.32
2017-10-04T07:03:29.519Z,1014.28
2017-10-04T07:04:29.504Z,1014.3
2017-10-04T07:05:29.476Z,1014.3
2017-10-04T07:06:29.460Z,1014.29
2017-10-04T07:07:29.433Z,1014.29
2017-10-04T07:08:29.415Z,1014.32
2017-10-04T07:09:29.391Z,1014.29
2017-10-04T07:10:29.372Z,1014.3
2017-10-04T07:11:29.349Z,1014.32
2017-10-04T07:12:29.327Z,1014.28
2017-10-04T07:13:29.309Z,1014.32
2017-10-04T07:14:29.285Z,1014.37
2017-10-04T07:15:29.265Z,1014.33
2017-10-04T07:16:29.239Z,1014.33
2017-10-04T07:17:29.221Z,1014.32
2017-10-04T07:18:29.202Z,1014.29
2017-10-04T07:19:29.177Z,1014.25
2017-10-04T07:20:29.156Z,1014.3
2017-10-04T07:21:29.135Z,1014.32
2017-10-04T07:22:29.115Z,1014.33
2017-10-04T07:23:29.089Z,1014.33
2017-10-04T07:24:29.069Z,1014.25
2017-10-04T07:25:29.045Z,1014.24
2017-10-04T07:26:29.024Z,1014.26
2017-10-04T07:27:29.006Z,1014.35
2017-10-04T07:28:28.981Z,1014.29
2017-10-04T07:29:28.959Z,1014.26
2017-10-04T07:30:28.937Z,1014.17
2017-10-04T07:31:28.920Z,1014.21
2017-10-04T07:32:28.894Z,1014.15
2017-10-04T07:33:28.875Z,1014.1
2017-10-04T07:34:28.850Z,1014.13
2017-10-04T07:35:28.827Z,1014.07
2017-10-04T07:36:28.806Z,1014.1
2017-10-04T07:37:28.788Z,1014.05
2017-10-04T07:38:28.764Z,1014.04
2017-10-04T07:39:28.741Z,1014.04
2017-10-04T07:40:28.727Z,1014.04
2017-10-04T07:41:28.698Z,1014.04
2017-10-04T07:42:28.675Z,1014
2017-10-04T07:43:28.675Z,1014.06
2017-10-04T07:44:28.638Z,1014.1
2017-10-04T07:45:28.611Z,1014.16
2017-10-04T07:46:28.590Z,1014.18
2017-10-04T07:47:28.565Z,1014.24
2017-10-04T07:48:28.548Z,1014.19
2017-10-04T07:49:28.530Z,1014.16
2017-10-04T07:50:28.503Z,1014.11
2017-10-04T07:51:28.479Z,1014.09
2017-10-04T07:52:28.460Z,1014.17
2017-10-04T07:53:28.436Z,1014.18
2017-10-04T07:54:28.414Z,1014.29
2017-10-04T07:55:28.396Z,1014.35
2017-10-04T07:56:28.370Z,1014.37
2017-10-04T07:57:28.352Z,1014.51
2017-10-04T07:58:28.327Z,1014.55
2017-10-04T07:59:28.304Z,1014.49
2017-10-04T08:00:28.282Z,1014.55
2017-10-04T08:01:28.262Z,1014.51
2017-10-04T08:02:28.248Z,1014.55
2017-10-04T08:03:28.220Z,1014.52
2017-10-04T08:04:28.199Z,1014.53
2017-10-04T08:05:28.174Z,1014.52
2017-10-04T08:06:28.153Z,1014.52
2017-10-04T08:07:28.132Z,1014.47
2017-10-04T08:08:28.113Z,1014.41
2017-10-04T08:09:28.088Z,1014.4
2017-10-04T08:10:28.068Z,1014.41
2017-10-04T08:11:28.047Z,1014.36
2017-10-04T08:12:28.023Z,1014.43
2017-10-04T08:13:28.000Z,1014.37
2017-10-04T08:14:27.980Z,1014.43
2017-10-04T08:15:27.973Z,1014.42
2017-10-04T08:16:27.935Z,1014.37
2017-10-04T08:17:27.913Z,1014.33
2017-10-04T08:18:27.891Z,1014.31
2017-10-04T08:19:27.932Z,1014.28
2017-10-04T08:20:27.850Z,1014.33
2017-10-04T08:21:27.827Z,1014.27
2017-10-04T08:22:27.808Z,1014.25
2017-10-04T08:23:27.785Z,1014.23
2017-10-04T08:24:27.764Z,1014.3
2017-10-04T08:25:27.744Z,1014.33
2017-10-04T08:26:27.725Z,1014.26
2017-10-04T08:27:27.698Z,1014.28
2017-10-04T08:28:27.678Z,1014.28
2017-10-04T08:29:27.656Z,1014.35
2017-10-04T08:30:27.641Z,1014.36
2017-10-04T08:31:27.609Z,1014.39
2017-10-04T08:32:27.590Z,1014.4
2017-10-04T08:33:27.568Z,1014.37
2017-10-04T08:34:27.554Z,1014.3
2017-10-04T08:35:27.524Z,1014.34
2017-10-04T08:36:27.509Z,1014.27
2017-10-04T08:37:27.482Z,1014.26
2017-10-04T08:38:27.466Z,1014.34
2017-10-04T08:39:27.440Z,1014.39
2017-10-04T08:40:27.418Z,1014.37
2017-10-04T08:41:27.400Z,1014.36
2017-10-04T08:42:27.375Z,1014.45
2017-10-04T08:43:27.359Z,1014.47
2017-10-04T08:44:27.333Z,1014.44
2017-10-04T08:45:27.310Z,1014.46
2017-10-04T08:46:27.291Z,1014.44
2017-10-04T08:47:27.270Z,1014.38
2017-10-04T08:48:27.251Z,1014.35
2017-10-04T08:49:27.227Z,1014.35
2017-10-04T08:50:27.215Z,1014.39
2017-10-04T08:51:27.186Z,1014.39
2017-10-04T08:52:27.168Z,1014.39
2017-10-04T08:53:27.146Z,1014.35
2017-10-04T08:54:27.125Z,1014.48
2017-10-04T08:55:27.110Z,1014.32
2017-10-04T08:56:27.091Z,1014.24
2017-10-04T08:57:27.068Z,1014.19
2017-10-04T08:58:27.045Z,1014.11
2017-10-04T08:59:27.026Z,1014.04
2017-10-04T09:00:27.006Z,1014.18
2017-10-04T09:01:26.985Z,1014.22
2017-10-04T09:02:26.964Z,1014.16
2017-10-04T09:03:26.944Z,1014.15
2017-10-04T09:04:26.925Z,1014.19
2017-10-04T09:05:26.904Z,1014.29
2017-10-04T09:06:26.881Z,1014.31
2017-10-04T09:07:26.863Z,1014.24
2017-10-04T09:08:26.844Z,1014.19
2017-10-04T09:09:26.823Z,1014.11
2017-10-04T09:10:26.804Z,1014.21
2017-10-04T09:11:26.780Z,1014.32
2017-10-04T09:12:26.761Z,1014.41
2017-10-04T09:13:26.741Z,1014.42
2017-10-04T09:14:26.722Z,1014.3
2017-10-04T09:15:26.701Z,1014.39
2017-10-04T09:16:26.678Z,1014.37
2017-10-04T09:17:26.659Z,1014.4
2017-10-04T09:18:26.639Z,1014.44
2017-10-04T09:19:26.617Z,1014.49
2017-10-04T09:20:26.599Z,1014.4
2017-10-04T09:21:26.576Z,1014.31
2017-10-04T09:22:26.562Z,1014.3
2017-10-04T09:23:26.535Z,1014.32
2017-10-04T09:24:26.565Z,1014.35
2017-10-04T09:25:26.494Z,1014.27
2017-10-04T09:26:26.472Z,1014.3
2017-10-04T09:27:26.451Z,1014.31
2017-10-04T09:28:26.431Z,1014.15
2017-10-04T09:29:26.410Z,1014.12
2017-10-04T09:30:26.392Z,1014.17
2017-10-04T09:31:26.374Z,1014.11
2017-10-04T09:32:26.347Z,1014.11
2017-10-04T09:33:26.326Z,1014.15
2017-10-04T09:34:26.306Z,1014.17
2017-10-04T09:35:26.308Z,1014.25
2017-10-04T09:36:26.288Z,1014.34
2017-10-04T09:37:26.241Z,1014.33
2017-10-04T09:38:26.220Z,1014.34
2017-10-04T09:39:26.199Z,1014.37
2017-10-04T09:40:26.181Z,1014.36
2017-10-04T09:41:26.157Z,1014.33
2017-10-04T09:42:26.135Z,1014.31
2017-10-04T09:43:26.114Z,1014.33
2017-10-04T09:44:26.093Z,1014.23
2017-10-04T09:45:26.071Z,1014.17
2017-10-04T09:46:26.050Z,1014.09
2017-10-04T09:47:26.029Z,1013.94
2017-10-04T09:48:26.008Z,1013.78
2017-10-04T09:49:25.986Z,1013.74
2017-10-04T09:50:25.965Z,1013.68
2017-10-04T09:51:25.950Z,1013.74
2017-10-04T09:52:25.924Z,1013.65
2017-10-04T09:53:25.902Z,1013.63
2017-10-04T09:54:25.881Z,1013.63
2017-10-04T09:55:25.863Z,1013.67
2017-10-04T09:56:25.840Z,1013.67
2017-10-04T09:57:25.820Z,1013.73
2017-10-04T09:58:25.796Z,1013.75
2017-10-04T09:59:25.774Z,1013.75
2017-10-04T10:00:25.757Z,1013.77
2017-10-04T10:01:25.741Z,1013.74
2017-10-04T10:02:25.719Z,1013.74
2017-10-04T10:03:25.699Z,1013.72
2017-10-04T10:04:25.678Z,1013.71
2017-10-04T10:05:25.654Z,1013.73
2017-10-04T10:06:25.631Z,1013.77
2017-10-04T10:07:25.608Z,1013.77
2017-10-04T10:08:25.587Z,1013.69
2017-10-04T10:09:25.566Z,1013.79
2017-10-04T10:10:25.547Z,1013.87
2017-10-04T10:11:25.534Z,1013.89
2017-10-04T10:12:25.505Z,1013.9
2017-10-04T10:13:25.485Z,1013.93
2017-10-04T10:14:25.465Z,1013.99
2017-10-04T10:15:25.441Z,1014.05
2017-10-04T10:16:25.424Z,1014.17
2017-10-04T10:17:25.398Z,1014.15
2017-10-04T10:18:25.379Z,1014.1
2017-10-04T10:19:25.356Z,1014.12
2017-10-04T10:20:25.335Z,1014.05
2017-10-04T10:21:25.313Z,1013.97
2017-10-04T10:22:25.294Z,1013.89
2017-10-04T10:23:25.271Z,1013.85
2017-10-04T10:24:25.250Z,1013.83
2017-10-04T10:25:25.230Z,1013.8
2017-10-04T10:26:25.207Z,1013.84
2017-10-04T10:27:25.188Z,1013.91
2017-10-04T10:28:25.164Z,1013.96
2017-10-04T10:29:25.146Z,1013.83
2017-10-04T10:30:25.124Z,1013.74
2017-10-04T10:31:25.103Z,1013.78
2017-10-04T10:32:25.087Z,1013.81
2017-10-04T10:33:25.060Z,1013.85
2017-10-04T10:34:25.040Z,1013.86
2017-10-04T10:35:25.019Z,1013.85
2017-10-04T10:36:24.998Z,1013.82
2017-10-04T10:37:24.977Z,1013.92
2017-10-04T10:38:24.958Z,1013.93
2017-10-04T10:39:24.933Z,1013.94
2017-10-04T10:40:24.913Z,1013.95
2017-10-04T10:41:24.892Z,1013.9
2017-10-04T10:42:24.872Z,1013.95
2017-10-04T10:43:24.852Z,1013.94
2017-10-04T10:44:24.830Z,1013.97
2017-10-04T10:45:24.812Z,1013.94
2017-10-04T10:46:24.796Z,1013.81
2017-10-04T10:47:24.767Z,1013.78
2017-10-04T10:48:24.746Z,1013.72
2017-10-04T10:49:24.725Z,1013.77
2017-10-04T10:50:24.704Z,1013.78
2017-10-04T10:51:24.682Z,1013.8
2017-10-04T10:52:24.663Z,1013.79
2017-10-04T10:53:24.652Z,1013.75
2017-10-04T10:54:24.625Z,1013.72
2017-10-04T10:55:24.603Z,1013.63
2017-10-04T10:56:24.579Z,1013.57
2017-10-04T10:57:24.558Z,1013.52
2017-10-04T10:58:24.536Z,1013.5
2017-10-04T10:59:24.521Z,1013.55
2017-10-04T11:00:24.493Z,1013.64
2017-10-04T11:01:24.475Z,1013.64
2017-10-04T11:02:24.453Z,1013.85
2017-10-04T11:03:24.435Z,1013.87
2017-10-04T11:04:24.412Z,1013.86
2017-10-04T11:05:24.394Z,1013.88
2017-10-04T11:06:24.374Z,1013.85
2017-10-04T11:07:24.352Z,1013.92
2017-10-04T11:08:24.330Z,1013.93
2017-10-04T11:09:24.313Z,1013.94
2017-10-04T11:10:24.287Z,1013.88
2017-10-04T11:11:24.269Z,1013.93
2017-10-04T11:12:24.252Z,1013.93
2017-10-04T11:13:24.228Z,1013.96
2017-10-04T11:14:24.215Z,1013.89
2017-10-04T11:15:24.185Z,1013.89
2017-10-04T11:16:24.165Z,1013.84
2017-10-04T11:17:24.143Z,1013.82
2017-10-04T11:18:24.129Z,1013.69
2017-10-04T11:19:24.103Z,1013.57
2017-10-04T11:20:24.082Z,1013.55
2017-10-04T11:21:24.059Z,1013.56
2017-10-04T11:22:24.039Z,1013.6
2017-10-04T11:23:24.023Z,1013.61
2017-10-04T11:24:24.000Z,1013.55
2017-10-04T11:25:23.983Z,1013.52
2017-10-04T11:26:23.959Z,1013.52
2017-10-04T11:27:23.938Z,1013.5
2017-10-04T11:28:23.918Z,1013.53
2017-10-04T11:29:23.898Z,1013.45
2017-10-04T11:30:23.879Z,1013.41
2017-10-04T11:31:23.856Z,1013.38
2017-10-04T11:32:23.838Z,1013.42
2017-10-04T11:33:23.815Z,1013.33
2017-10-04T11:34:23.795Z,1013.42
2017-10-04T11:35:23.772Z,1013.43
2017-10-04T11:36:23.756Z,1013.47
2017-10-04T11:37:23.745Z,1013.44
2017-10-04T11:38:23.714Z,1013.42
2017-10-04T11:39:23.692Z,1013.38
2017-10-04T11:40:23.674Z,1013.35
2017-10-04T11:41:23.651Z,1013.39
2017-10-04T11:42:23.633Z,1013.36
2017-10-04T11:43:23.661Z,1013.38
2017-10-04T11:44:23.594Z,1013.37
2017-10-04T11:45:23.574Z,1013.31
2017-10-04T11:46:23.550Z,1013.28
2017-10-04T11:47:23.531Z,1013.32
2017-10-04T11:48:23.509Z,1013.41
2017-10-04T11:49:23.489Z,1013.41
2017-10-04T11:50:23.469Z,1013.35
2017-10-04T11:51:23.451Z,1013.3
2017-10-04T11:52:23.433Z,1013.26
2017-10-04T11:53:23.408Z,1013.31
2017-10-04T11:54:23.385Z,1013.28
2017-10-04T11:55:23.367Z,1013.3
2017-10-04T11:56:23.396Z,1013.28
2017-10-04T11:57:23.327Z,1013.21
2017-10-04T11:58:23.305Z,1013.23
2017-10-04T11:59:23.283Z,1013.38
2017-10-04T12:00:23.263Z,1013.34
2017-10-04T12:01:23.243Z,1013.38
2017-10-04T12:02:23.224Z,1013.29
2017-10-04T12:03:23.203Z,1013.27
2017-10-04T12:04:23.182Z,1013.29
2017-10-04T12:05:23.163Z,1013.33
2017-10-04T12:06:23.142Z,1013.24
2017-10-04T12:07:23.119Z,1013.25